Terminal Aerodrome Forecast
Issued by NWS

Home | Current Version | Previous Version | Text Only | Print | Product List | Glossary On
Versions: 1 2 3 4 5 6 7 8 9 10 11 12 13 14
040
FTUS45 KABQ 252329
TAFAEG
TAF
KAEG 252329Z 2600/2624 17015G22KT P6SM BKN090
     FM260200 18007KT P6SM SCT120
     FM260700 32006KT P6SM FEW120
     FM261700 23012KT P6SM FEW120
     FM262000 26018G28KT P6SM SCT080 BKN120=

USA.gov is the U.S. government's official web portal to all federal, state and local government web resources and services.